Wolfe, West Virginia
Current Conditions -  °F | °C
As of 9:52 AM on Wednesday 22 Oct 2014 (Local Time) from KBLF Reporting Station
Haze Haze  
Wind Chill: 37°   Ceiling: 400
Heat Index: 42°   Visibility: 4mi
Dew Point: 38°   Wind: 8mph
Humidity: 85%   Direction: 290°WNW
Pressure: 30.15"   Gusts: NA
Location:  37.31°N, 81.33°W
Report Text: KBLF 221352Z AUTO 29007KT 4SM BR OVC004 06/03 A3015 RMK AO2 RAB16E26 SLP209 P0001 T00560033
Loading
Personal Weather Stations






























Interactive Weather Map
Tropical Storm Tracking
New forecast layout! Learn more

10-Day Weather Forecast

Advertisements
Track Severe Weather on mobile